sensor_id;sensor_type;location;lat;lon;timestamp;temperature;humidity
16229;DHT22;8222;51.462;12.630;2024-03-17T00:01:56;5.90;99.90
16229;DHT22;8222;51.462;12.630;2024-03-17T00:04:22;5.90;99.90
16229;DHT22;8222;51.462;12.630;2024-03-17T00:06:48;6.20;99.90
16229;DHT22;8222;51.462;12.630;2024-03-17T00:09:15;5.90;99.90
16229;DHT22;8222;51.462;12.630;2024-03-17T00:11:41;5.90;99.90
16229;DHT22;8222;51.462;12.630;2024-03-17T00:14:07;5.90;99.90
16229;DHT22;8222;51.462;12.630;2024-03-17T00:16:35;5.90;99.90
16229;DHT22;8222;51.462;12.630;2024-03-17T00:19:00;5.90;99.90
16229;DHT22;8222;51.462;12.630;2024-03-17T00:21:28;5.90;99.90
16229;DHT22;8222;51.462;12.630;2024-03-17T00:23:54;5.80;99.90
16229;DHT22;8222;51.462;12.630;2024-03-17T00:26:20;5.80;99.90
16229;DHT22;8222;51.462;12.630;2024-03-17T00:28:50;5.80;99.90
16229;DHT22;8222;51.462;12.630;2024-03-17T00:31:16;5.80;99.90
16229;DHT22;8222;51.462;12.630;2024-03-17T00:33:42;5.80;99.90
16229;DHT22;8222;51.462;12.630;2024-03-17T00:36:12;5.80;99.90
16229;DHT22;8222;51.462;12.630;2024-03-17T00:38:38;5.90;99.90
16229;DHT22;8222;51.462;12.630;2024-03-17T00:41:06;5.80;99.90
16229;DHT22;8222;51.462;12.630;2024-03-17T00:43:34;5.90;99.90
16229;DHT22;8222;51.462;12.630;2024-03-17T00:46:00;6.40;99.90
16229;DHT22;8222;51.462;12.630;2024-03-17T00:48:28;5.90;99.90
16229;DHT22;8222;51.462;12.630;2024-03-17T00:50:57;5.90;99.90
16229;DHT22;8222;51.462;12.630;2024-03-17T00:53:25;5.90;99.90
16229;DHT22;8222;51.462;12.630;2024-03-17T00:55:57;5.90;99.90
16229;DHT22;8222;51.462;12.630;2024-03-17T00:58:23;6.00;99.90
16229;DHT22;8222;51.462;12.630;2024-03-17T01:00:49;5.80;99.90
16229;DHT22;8222;51.462;12.630;2024-03-17T01:03:18;5.80;99.90
16229;DHT22;8222;51.462;12.630;2024-03-17T01:05:44;5.80;99.90
16229;DHT22;8222;51.462;12.630;2024-03-17T01:08:13;5.80;99.90
16229;DHT22;8222;51.462;12.630;2024-03-17T01:10:39;5.80;99.90
16229;DHT22;8222;51.462;12.630;2024-03-17T01:13:09;5.90;99.90
16229;DHT22;8222;51.462;12.630;2024-03-17T01:15:36;5.80;99.90
16229;DHT22;8222;51.462;12.630;2024-03-17T01:18:05;5.70;99.90
16229;DHT22;8222;51.462;12.630;2024-03-17T01:20:37;5.70;99.90
16229;DHT22;8222;51.462;12.630;2024-03-17T01:23:04;5.70;99.90
16229;DHT22;8222;51.462;12.630;2024-03-17T01:25:30;5.60;99.90
16229;DHT22;8222;51.462;12.630;2024-03-17T01:27:58;5.60;99.90
16229;DHT22;8222;51.462;12.630;2024-03-17T01:30:24;5.60;99.90
16229;DHT22;8222;51.462;12.630;2024-03-17T01:32:52;5.60;99.90
16229;DHT22;8222;51.462;12.630;2024-03-17T01:35:19;5.60;99.90
16229;DHT22;8222;51.462;12.630;2024-03-17T01:37:45;5.60;99.90
16229;DHT22;8222;51.462;12.630;2024-03-17T01:40:11;5.60;99.90
16229;DHT22;8222;51.462;12.630;2024-03-17T01:42:40;5.60;99.90
16229;DHT22;8222;51.462;12.630;2024-03-17T01:47:43;5.70;99.90
16229;DHT22;8222;51.462;12.630;2024-03-17T01:50:12;6.20;99.90
16229;DHT22;8222;51.462;12.630;2024-03-17T01:52:39;5.70;99.90
16229;DHT22;8222;51.462;12.630;2024-03-17T01:55:05;5.70;99.90
16229;DHT22;8222;51.462;12.630;2024-03-17T01:57:33;5.70;99.90
16229;DHT22;8222;51.462;12.630;2024-03-17T02:00:00;5.80;99.90
16229;DHT22;8222;51.462;12.630;2024-03-17T02:02:25;5.80;99.90
16229;DHT22;8222;51.462;12.630;2024-03-17T02:04:53;5.80;99.90
16229;DHT22;8222;51.462;12.630;2024-03-17T02:07:19;5.90;99.90
16229;DHT22;8222;51.462;12.630;2024-03-17T02:09:47;5.70;99.90
16229;DHT22;8222;51.462;12.630;2024-03-17T02:12:12;6.00;99.90
16229;DHT22;8222;51.462;12.630;2024-03-17T02:14:38;5.30;99.90
16229;DHT22;8222;51.462;12.630;2024-03-17T02:17:06;6.00;99.90
16229;DHT22;8222;51.462;12.630;2024-03-17T02:19:32;5.90;99.90
16229;DHT22;8222;51.462;12.630;2024-03-17T02:22:00;5.90;99.90
16229;DHT22;8222;51.462;12.630;2024-03-17T02:24:29;5.90;99.90
16229;DHT22;8222;51.462;12.630;2024-03-17T02:26:59;5.90;99.90
16229;DHT22;8222;51.462;12.630;2024-03-17T02:29:27;5.80;99.90
16229;DHT22;8222;51.462;12.630;2024-03-17T02:31:52;5.70;99.90
16229;DHT22;8222;51.462;12.630;2024-03-17T02:34:23;5.70;99.90
16229;DHT22;8222;51.462;12.630;2024-03-17T02:36:49;5.60;99.90
16229;DHT22;8222;51.462;12.630;2024-03-17T02:39:14;5.50;99.90
16229;DHT22;8222;51.462;12.630;2024-03-17T02:42:01;5.50;99.90
16229;DHT22;8222;51.462;12.630;2024-03-17T02:44:29;5.40;99.90
16229;DHT22;8222;51.462;12.630;2024-03-17T02:46:58;5.40;99.90
16229;DHT22;8222;51.462;12.630;2024-03-17T02:49:25;5.50;99.90
16229;DHT22;8222;51.462;12.630;2024-03-17T02:51:54;5.50;99.90
16229;DHT22;8222;51.462;12.630;2024-03-17T02:54:23;5.50;99.90
16229;DHT22;8222;51.462;12.630;2024-03-17T02:56:49;5.50;99.90
16229;DHT22;8222;51.462;12.630;2024-03-17T02:59:17;6.10;99.90
16229;DHT22;8222;51.462;12.630;2024-03-17T03:01:43;5.40;99.90
16229;DHT22;8222;51.462;12.630;2024-03-17T03:04:10;5.40;99.90
16229;DHT22;8222;51.462;12.630;2024-03-17T03:06:36;5.40;99.90
16229;DHT22;8222;51.462;12.630;2024-03-17T03:09:01;5.40;99.90
16229;DHT22;8222;51.462;12.630;2024-03-17T03:11:27;5.30;99.90
16229;DHT22;8222;51.462;12.630;2024-03-17T03:13:52;5.40;99.90
16229;DHT22;8222;51.462;12.630;2024-03-17T03:16:18;5.30;99.90
16229;DHT22;8222;51.462;12.630;2024-03-17T03:18:44;5.30;99.90
16229;DHT22;8222;51.462;12.630;2024-03-17T03:21:12;5.30;99.90
16229;DHT22;8222;51.462;12.630;2024-03-17T03:23:40;5.20;99.90
16229;DHT22;8222;51.462;12.630;2024-03-17T03:26:06;5.20;99.90
16229;DHT22;8222;51.462;12.630;2024-03-17T03:28:34;5.10;99.90
16229;DHT22;8222;51.462;12.630;2024-03-17T03:31:03;5.20;99.90
16229;DHT22;8222;51.462;12.630;2024-03-17T03:33:33;5.10;99.90
16229;DHT22;8222;51.462;12.630;2024-03-17T03:36:01;5.10;99.90
16229;DHT22;8222;51.462;12.630;2024-03-17T03:38:34;5.00;99.90
16229;DHT22;8222;51.462;12.630;2024-03-17T03:41:15;5.10;99.90
16229;DHT22;8222;51.462;12.630;2024-03-17T03:43:43;5.10;99.90
16229;DHT22;8222;51.462;12.630;2024-03-17T03:46:11;5.10;99.90
16229;DHT22;8222;51.462;12.630;2024-03-17T03:48:36;5.10;99.90
16229;DHT22;8222;51.462;12.630;2024-03-17T03:51:05;5.00;99.90
16229;DHT22;8222;51.462;12.630;2024-03-17T03:53:34;5.10;99.90
16229;DHT22;8222;51.462;12.630;2024-03-17T03:56:00;5.70;99.90
16229;DHT22;8222;51.462;12.630;2024-03-17T03:58:34;5.00;99.90
16229;DHT22;8222;51.462;12.630;2024-03-17T04:01:06;5.00;99.90
16229;DHT22;8222;51.462;12.630;2024-03-17T04:03:32;5.30;99.90
16229;DHT22;8222;51.462;12.630;2024-03-17T04:06:03;4.90;99.90
16229;DHT22;8222;51.462;12.630;2024-03-17T04:08:32;4.90;99.90
16229;DHT22;8222;51.462;12.630;2024-03-17T04:11:01;5.60;99.90
16229;DHT22;8222;51.462;12.630;2024-03-17T04:13:28;4.80;99.90
16229;DHT22;8222;51.462;12.630;2024-03-17T04:15:58;4.70;99.90
16229;DHT22;8222;51.462;12.630;2024-03-17T04:18:27;4.70;99.90
16229;DHT22;8222;51.462;12.630;2024-03-17T04:21:04;4.70;99.90
16229;DHT22;8222;51.462;12.630;2024-03-17T04:23:30;4.60;99.90
16229;DHT22;8222;51.462;12.630;2024-03-17T04:26:00;4.60;99.90
16229;DHT22;8222;51.462;12.630;2024-03-17T04:28:26;4.60;99.90
16229;DHT22;8222;51.462;12.630;2024-03-17T04:31:05;4.70;99.90
16229;DHT22;8222;51.462;12.630;2024-03-17T04:33:34;4.70;99.90
16229;DHT22;8222;51.462;12.630;2024-03-17T04:36:01;4.70;99.90
16229;DHT22;8222;51.462;12.630;2024-03-17T04:38:30;4.70;99.90
16229;DHT22;8222;51.462;12.630;2024-03-17T04:41:00;4.70;99.90
16229;DHT22;8222;51.462;12.630;2024-03-17T04:43:36;4.70;99.90
16229;DHT22;8222;51.462;12.630;2024-03-17T04:46:03;4.70;99.90
16229;DHT22;8222;51.462;12.630;2024-03-17T04:48:31;4.60;99.90
16229;DHT22;8222;51.462;12.630;2024-03-17T04:50:57;4.60;99.90
16229;DHT22;8222;51.462;12.630;2024-03-17T04:53:26;4.50;99.90
16229;DHT22;8222;51.462;12.630;2024-03-17T04:56:12;4.60;99.90
16229;DHT22;8222;51.462;12.630;2024-03-17T04:58:43;4.50;99.90
16229;DHT22;8222;51.462;12.630;2024-03-17T05:01:09;4.60;99.90
16229;DHT22;8222;51.462;12.630;2024-03-17T05:03:37;4.60;99.90
16229;DHT22;8222;51.462;12.630;2024-03-17T05:06:05;4.70;99.90
16229;DHT22;8222;51.462;12.630;2024-03-17T05:08:33;4.70;99.90
16229;DHT22;8222;51.462;12.630;2024-03-17T05:11:01;4.80;99.90
16229;DHT22;8222;51.462;12.630;2024-03-17T05:13:30;4.80;99.90
16229;DHT22;8222;51.462;12.630;2024-03-17T05:15:59;4.80;99.90
16229;DHT22;8222;51.462;12.630;2024-03-17T05:18:33;4.80;99.90
16229;DHT22;8222;51.462;12.630;2024-03-17T05:21:01;5.30;99.90
16229;DHT22;8222;51.462;12.630;2024-03-17T05:23:32;4.80;99.90
16229;DHT22;8222;51.462;12.630;2024-03-17T05:26:03;4.70;99.90
16229;DHT22;8222;51.462;12.630;2024-03-17T05:28:34;5.20;99.90
16229;DHT22;8222;51.462;12.630;2024-03-17T05:30:59;4.70;99.90
16229;DHT22;8222;51.462;12.630;2024-03-17T05:33:26;4.80;99.90
16229;DHT22;8222;51.462;12.630;2024-03-17T05:35:57;4.80;99.90
16229;DHT22;8222;51.462;12.630;2024-03-17T05:38:25;4.80;99.90
16229;DHT22;8222;51.462;12.630;2024-03-17T05:41:01;4.80;99.90
16229;DHT22;8222;51.462;12.630;2024-03-17T05:43:31;4.80;99.90
16229;DHT22;8222;51.462;12.630;2024-03-17T05:46:00;5.40;99.90
16229;DHT22;8222;51.462;12.630;2024-03-17T05:48:29;4.80;99.90
16229;DHT22;8222;51.462;12.630;2024-03-17T05:50:54;4.80;99.90
16229;DHT22;8222;51.462;12.630;2024-03-17T05:53:25;4.80;99.90
16229;DHT22;8222;51.462;12.630;2024-03-17T05:55:50;4.90;99.90
16229;DHT22;8222;51.462;12.630;2024-03-17T05:58:16;4.90;99.90
16229;DHT22;8222;51.462;12.630;2024-03-17T06:00:44;4.90;99.90
16229;DHT22;8222;51.462;12.630;2024-03-17T06:03:10;5.00;99.90
16229;DHT22;8222;51.462;12.630;2024-03-17T06:05:37;5.00;99.90
16229;DHT22;8222;51.462;12.630;2024-03-17T06:08:04;5.00;99.90
16229;DHT22;8222;51.462;12.630;2024-03-17T06:10:31;5.00;99.90
16229;DHT22;8222;51.462;12.630;2024-03-17T06:12:58;5.10;99.90
16229;DHT22;8222;51.462;12.630;2024-03-17T06:15:26;5.70;99.90
16229;DHT22;8222;51.462;12.630;2024-03-17T06:17:53;5.20;99.90
16229;DHT22;8222;51.462;12.630;2024-03-17T06:20:23;5.10;99.90
16229;DHT22;8222;51.462;12.630;2024-03-17T06:22:55;5.20;99.90
16229;DHT22;8222;51.462;12.630;2024-03-17T06:25:21;5.20;99.90
16229;DHT22;8222;51.462;12.630;2024-03-17T06:27:55;5.30;99.90
16229;DHT22;8222;51.462;12.630;2024-03-17T06:30:23;5.50;99.90
16229;DHT22;8222;51.462;12.630;2024-03-17T06:32:51;5.50;99.90
16229;DHT22;8222;51.462;12.630;2024-03-17T06:35:17;5.50;99.90
16229;DHT22;8222;51.462;12.630;2024-03-17T06:37:46;5.60;99.90
16229;DHT22;8222;51.462;12.630;2024-03-17T06:40:15;5.60;99.90
16229;DHT22;8222;51.462;12.630;2024-03-17T06:42:41;5.70;99.90
16229;DHT22;8222;51.462;12.630;2024-03-17T06:45:07;5.80;99.90
16229;DHT22;8222;51.462;12.630;2024-03-17T06:47:37;5.90;99.90
16229;DHT22;8222;51.462;12.630;2024-03-17T06:50:07;5.90;99.90
16229;DHT22;8222;51.462;12.630;2024-03-17T06:52:36;6.00;99.90
16229;DHT22;8222;51.462;12.630;2024-03-17T06:55:04;6.10;99.90
16229;DHT22;8222;51.462;12.630;2024-03-17T06:57:33;6.20;99.90
16229;DHT22;8222;51.462;12.630;2024-03-17T06:59:59;6.20;99.90
16229;DHT22;8222;51.462;12.630;2024-03-17T07:02:25;6.50;99.90
16229;DHT22;8222;51.462;12.630;2024-03-17T07:04:51;6.60;99.90
16229;DHT22;8222;51.462;12.630;2024-03-17T07:07:16;6.70;99.90
16229;DHT22;8222;51.462;12.630;2024-03-17T07:09:42;6.90;99.90
16229;DHT22;8222;51.462;12.630;2024-03-17T07:12:11;7.10;99.90
16229;DHT22;8222;51.462;12.630;2024-03-17T07:14:37;7.20;99.90
16229;DHT22;8222;51.462;12.630;2024-03-17T07:17:05;7.30;99.90
16229;DHT22;8222;51.462;12.630;2024-03-17T07:19:30;7.30;99.90
16229;DHT22;8222;51.462;12.630;2024-03-17T07:22:00;7.30;99.90
16229;DHT22;8222;51.462;12.630;2024-03-17T07:24:26;7.40;99.90
16229;DHT22;8222;51.462;12.630;2024-03-17T07:26:53;7.90;99.90
16229;DHT22;8222;51.462;12.630;2024-03-17T07:29:21;7.50;99.90
16229;DHT22;8222;51.462;12.630;2024-03-17T07:31:49;7.70;99.90
16229;DHT22;8222;51.462;12.630;2024-03-17T07:34:15;7.80;99.90
16229;DHT22;8222;51.462;12.630;2024-03-17T07:36:43;7.90;99.90
16229;DHT22;8222;51.462;12.630;2024-03-17T07:39:11;7.90;99.90
16229;DHT22;8222;51.462;12.630;2024-03-17T07:41:39;8.00;99.90
16229;DHT22;8222;51.462;12.630;2024-03-17T07:44:07;8.00;99.90
16229;DHT22;8222;51.462;12.630;2024-03-17T07:46:32;8.10;99.90
16229;DHT22;8222;51.462;12.630;2024-03-17T07:48:58;8.30;99.90
16229;DHT22;8222;51.462;12.630;2024-03-17T07:51:24;8.50;99.90
16229;DHT22;8222;51.462;12.630;2024-03-17T07:53:49;8.70;99.90
16229;DHT22;8222;51.462;12.630;2024-03-17T07:56:19;8.70;99.90
16229;DHT22;8222;51.462;12.630;2024-03-17T07:58:45;8.90;99.90
16229;DHT22;8222;51.462;12.630;2024-03-17T08:01:15;8.90;99.90
16229;DHT22;8222;51.462;12.630;2024-03-17T08:03:45;8.90;99.90
16229;DHT22;8222;51.462;12.630;2024-03-17T08:06:11;8.90;99.90
16229;DHT22;8222;51.462;12.630;2024-03-17T08:08:37;9.00;99.90
16229;DHT22;8222;51.462;12.630;2024-03-17T08:11:06;9.00;99.90
16229;DHT22;8222;51.462;12.630;2024-03-17T08:13:32;9.00;99.90
16229;DHT22;8222;51.462;12.630;2024-03-17T08:16:05;8.90;99.90
16229;DHT22;8222;51.462;12.630;2024-03-17T08:18:33;8.90;99.90
16229;DHT22;8222;51.462;12.630;2024-03-17T08:21:01;9.00;99.90
16229;DHT22;8222;51.462;12.630;2024-03-17T08:23:32;9.20;99.90
16229;DHT22;8222;51.462;12.630;2024-03-17T08:26:01;9.50;99.90
16229;DHT22;8222;51.462;12.630;2024-03-17T08:28:33;9.30;99.90
16229;DHT22;8222;51.462;12.630;2024-03-17T08:31:00;9.40;99.90
16229;DHT22;8222;51.462;12.630;2024-03-17T08:33:27;9.40;99.90
16229;DHT22;8222;51.462;12.630;2024-03-17T08:35:57;9.70;99.90
16229;DHT22;8222;51.462;12.630;2024-03-17T08:38:27;9.70;99.90
16229;DHT22;8222;51.462;12.630;2024-03-17T08:40:54;10.00;99.90
16229;DHT22;8222;51.462;12.630;2024-03-17T08:43:21;10.00;99.90
16229;DHT22;8222;51.462;12.630;2024-03-17T08:48:27;10.20;99.90
16229;DHT22;8222;51.462;12.630;2024-03-17T08:50:54;10.40;99.90
16229;DHT22;8222;51.462;12.630;2024-03-17T08:53:21;10.60;99.90
16229;DHT22;8222;51.462;12.630;2024-03-17T08:55:47;10.70;99.90
16229;DHT22;8222;51.462;12.630;2024-03-17T08:58:13;10.70;99.90
16229;DHT22;8222;51.462;12.630;2024-03-17T09:00:39;10.70;99.90
16229;DHT22;8222;51.462;12.630;2024-03-17T09:03:09;10.70;99.90
16229;DHT22;8222;51.462;12.630;2024-03-17T09:05:42;10.60;99.90
16229;DHT22;8222;51.462;12.630;2024-03-17T09:08:16;10.60;99.90
16229;DHT22;8222;51.462;12.630;2024-03-17T09:10:46;10.80;99.90
16229;DHT22;8222;51.462;12.630;2024-03-17T09:13:14;11.00;99.90
16229;DHT22;8222;51.462;12.630;2024-03-17T09:15:56;11.10;99.90
16229;DHT22;8222;51.462;12.630;2024-03-17T09:18:28;10.80;99.90
16229;DHT22;8222;51.462;12.630;2024-03-17T09:21:05;10.70;99.90
16229;DHT22;8222;51.462;12.630;2024-03-17T09:23:34;10.50;99.90
16229;DHT22;8222;51.462;12.630;2024-03-17T09:26:01;10.50;99.90
16229;DHT22;8222;51.462;12.630;2024-03-17T09:28:28;10.50;99.90
16229;DHT22;8222;51.462;12.630;2024-03-17T09:30:57;10.50;99.90
16229;DHT22;8222;51.462;12.630;2024-03-17T09:33:28;10.70;99.90
16229;DHT22;8222;51.462;12.630;2024-03-17T09:36:08;11.00;99.90
16229;DHT22;8222;51.462;12.630;2024-03-17T09:38:38;11.30;99.90
16229;DHT22;8222;51.462;12.630;2024-03-17T09:41:05;11.70;99.90
16229;DHT22;8222;51.462;12.630;2024-03-17T09:43:34;11.60;99.90
16229;DHT22;8222;51.462;12.630;2024-03-17T09:46:02;11.70;99.90
16229;DHT22;8222;51.462;12.630;2024-03-17T09:48:29;11.80;99.90
16229;DHT22;8222;51.462;12.630;2024-03-17T09:50:59;11.80;99.90
16229;DHT22;8222;51.462;12.630;2024-03-17T09:53:29;11.70;99.90
16229;DHT22;8222;51.462;12.630;2024-03-17T09:56:10;11.80;99.90
16229;DHT22;8222;51.462;12.630;2024-03-17T09:58:43;11.60;99.90
16229;DHT22;8222;51.462;12.630;2024-03-17T10:01:10;11.80;99.90
16229;DHT22;8222;51.462;12.630;2024-03-17T10:06:18;12.00;99.90
16229;DHT22;8222;51.462;12.630;2024-03-17T10:08:52;12.00;99.90
16229;DHT22;8222;51.462;12.630;2024-03-17T10:11:22;11.90;99.90
16229;DHT22;8222;51.462;12.630;2024-03-17T10:16:31;11.60;99.90
16229;DHT22;8222;51.462;12.630;2024-03-17T10:19:15;11.60;99.90
16229;DHT22;8222;51.462;12.630;2024-03-17T10:21:44;11.60;99.90
16229;DHT22;8222;51.462;12.630;2024-03-17T10:26:50;11.60;99.90
16229;DHT22;8222;51.462;12.630;2024-03-17T10:29:35;11.40;99.90
16229;DHT22;8222;51.462;12.630;2024-03-17T10:32:15;11.50;99.90
16229;DHT22;8222;51.462;12.630;2024-03-17T10:34:46;11.60;99.90
16229;DHT22;8222;51.462;12.630;2024-03-17T10:37:21;12.50;99.90
16229;DHT22;8222;51.462;12.630;2024-03-17T10:39:55;11.90;99.90
16229;DHT22;8222;51.462;12.630;2024-03-17T10:42:26;12.10;99.90
16229;DHT22;8222;51.462;12.630;2024-03-17T10:44:57;12.20;99.90
16229;DHT22;8222;51.462;12.630;2024-03-17T10:47:27;12.40;99.90
16229;DHT22;8222;51.462;12.630;2024-03-17T10:49:56;12.80;99.90
16229;DHT22;8222;51.462;12.630;2024-03-17T10:52:24;13.10;99.90
16229;DHT22;8222;51.462;12.630;2024-03-17T10:54:57;13.40;99.90
16229;DHT22;8222;51.462;12.630;2024-03-17T10:57:32;13.60;99.90
16229;DHT22;8222;51.462;12.630;2024-03-17T11:00:08;13.90;99.90
16229;DHT22;8222;51.462;12.630;2024-03-17T11:02:35;14.10;98.30
16229;DHT22;8222;51.462;12.630;2024-03-17T11:05:05;14.20;96.00
16229;DHT22;8222;51.462;12.630;2024-03-17T11:07:34;14.20;96.10
16229;DHT22;8222;51.462;12.630;2024-03-17T11:10:03;14.00;95.30
16229;DHT22;8222;51.462;12.630;2024-03-17T11:20:38;13.00;98.80
16229;DHT22;8222;51.462;12.630;2024-03-17T11:23:05;12.90;99.90
16229;DHT22;8222;51.462;12.630;2024-03-17T11:30:49;13.00;99.90
16229;DHT22;8222;51.462;12.630;2024-03-17T11:39:11;12.20;99.90
16229;DHT22;8222;51.462;12.630;2024-03-17T11:42:04;12.70;99.90
16229;DHT22;8222;51.462;12.630;2024-03-17T11:44:38;12.30;99.90
16229;DHT22;8222;51.462;12.630;2024-03-17T11:47:06;12.90;99.90
16229;DHT22;8222;51.462;12.630;2024-03-17T11:49:40;12.30;99.80
16229;DHT22;8222;51.462;12.630;2024-03-17T11:52:13;12.40;99.40
16229;DHT22;8222;51.462;12.630;2024-03-17T11:54:46;12.50;97.10
16229;DHT22;8222;51.462;12.630;2024-03-17T11:57:24;12.50;97.70
16229;DHT22;8222;51.462;12.630;2024-03-17T11:59:50;12.60;99.90
16229;DHT22;8222;51.462;12.630;2024-03-17T12:02:21;12.70;99.90
16229;DHT22;8222;51.462;12.630;2024-03-17T12:04:48;13.00;99.90
16229;DHT22;8222;51.462;12.630;2024-03-17T12:07:16;13.20;96.10
16229;DHT22;8222;51.462;12.630;2024-03-17T12:09:46;13.40;95.30
16229;DHT22;8222;51.462;12.630;2024-03-17T12:14:49;14.00;96.60
16229;DHT22;8222;51.462;12.630;2024-03-17T12:17:25;14.30;93.90
16229;DHT22;8222;51.462;12.630;2024-03-17T12:19:53;14.30;92.20
16229;DHT22;8222;51.462;12.630;2024-03-17T12:22:25;14.20;94.30
16229;DHT22;8222;51.462;12.630;2024-03-17T12:25:00;14.00;95.30
16229;DHT22;8222;51.462;12.630;2024-03-17T12:27:27;13.90;95.70
16229;DHT22;8222;51.462;12.630;2024-03-17T12:29:54;13.40;96.90
16229;DHT22;8222;51.462;12.630;2024-03-17T12:32:24;13.00;96.40
16229;DHT22;8222;51.462;12.630;2024-03-17T12:34:55;12.90;97.30
16229;DHT22;8222;51.462;12.630;2024-03-17T12:37:30;13.00;98.40
16229;DHT22;8222;51.462;12.630;2024-03-17T12:40:02;13.30;98.20
16229;DHT22;8222;51.462;12.630;2024-03-17T12:42:31;12.80;96.10
16229;DHT22;8222;51.462;12.630;2024-03-17T12:45:01;12.60;96.70
16229;DHT22;8222;51.462;12.630;2024-03-17T12:47:32;12.40;96.70
16229;DHT22;8222;51.462;12.630;2024-03-17T12:49:59;12.50;97.90
16229;DHT22;8222;51.462;12.630;2024-03-17T12:52:33;12.60;98.30
16229;DHT22;8222;51.462;12.630;2024-03-17T12:57:50;13.10;97.10
16229;DHT22;8222;51.462;12.630;2024-03-17T13:00:34;13.20;95.30
16229;DHT22;8222;51.462;12.630;2024-03-17T13:03:01;13.40;95.10
16229;DHT22;8222;51.462;12.630;2024-03-17T13:05:29;13.70;93.80
16229;DHT22;8222;51.462;12.630;2024-03-17T13:07:55;13.80;94.30
16229;DHT22;8222;51.462;12.630;2024-03-17T13:10:29;14.00;92.10
16229;DHT22;8222;51.462;12.630;2024-03-17T13:13:05;14.00;91.80
16229;DHT22;8222;51.462;12.630;2024-03-17T13:15:35;14.20;94.80
16229;DHT22;8222;51.462;12.630;2024-03-17T13:18:05;14.40;92.70
16229;DHT22;8222;51.462;12.630;2024-03-17T13:20:36;14.30;92.90
16229;DHT22;8222;51.462;12.630;2024-03-17T13:23:01;14.00;93.40
16229;DHT22;8222;51.462;12.630;2024-03-17T13:25:29;13.70;93.20
16229;DHT22;8222;51.462;12.630;2024-03-17T13:28:00;13.40;95.30
16229;DHT22;8222;51.462;12.630;2024-03-17T13:30:28;13.20;97.10
16229;DHT22;8222;51.462;12.630;2024-03-17T13:32:57;12.90;98.00
16229;DHT22;8222;51.462;12.630;2024-03-17T13:35:27;12.70;99.00
16229;DHT22;8222;51.462;12.630;2024-03-17T13:37:58;12.70;98.90
16229;DHT22;8222;51.462;12.630;2024-03-17T13:40:26;12.70;99.70
16229;DHT22;8222;51.462;12.630;2024-03-17T13:43:00;12.60;99.90
16229;DHT22;8222;51.462;12.630;2024-03-17T13:45:30;12.50;99.90
16229;DHT22;8222;51.462;12.630;2024-03-17T13:48:00;12.50;99.90
16229;DHT22;8222;51.462;12.630;2024-03-17T13:50:26;12.70;99.90
16229;DHT22;8222;51.462;12.630;2024-03-17T13:52:52;12.40;99.90
16229;DHT22;8222;51.462;12.630;2024-03-17T13:55:24;12.50;99.90
16229;DHT22;8222;51.462;12.630;2024-03-17T13:57:52;12.60;99.90
16229;DHT22;8222;51.462;12.630;2024-03-17T14:00:23;12.60;99.20
16229;DHT22;8222;51.462;12.630;2024-03-17T14:02:53;12.60;99.70
16229;DHT22;8222;51.462;12.630;2024-03-17T14:05:20;12.50;98.70
16229;DHT22;8222;51.462;12.630;2024-03-17T14:07:47;12.60;99.80
16229;DHT22;8222;51.462;12.630;2024-03-17T14:10:18;12.80;98.20
16229;DHT22;8222;51.462;12.630;2024-03-17T14:12:46;12.80;98.70
16229;DHT22;8222;51.462;12.630;2024-03-17T14:15:13;12.90;98.70
16229;DHT22;8222;51.462;12.630;2024-03-17T14:17:39;13.20;98.00
16229;DHT22;8222;51.462;12.630;2024-03-17T14:20:06;12.80;99.30
16229;DHT22;8222;51.462;12.630;2024-03-17T14:22:41;12.80;99.00
16229;DHT22;8222;51.462;12.630;2024-03-17T14:25:08;12.70;98.10
16229;DHT22;8222;51.462;12.630;2024-03-17T14:27:36;12.70;97.50
16229;DHT22;8222;51.462;12.630;2024-03-17T14:30:01;12.80;96.80
16229;DHT22;8222;51.462;12.630;2024-03-17T14:32:30;12.90;96.90
16229;DHT22;8222;51.462;12.630;2024-03-17T14:34:58;13.10;95.80
16229;DHT22;8222;51.462;12.630;2024-03-17T14:37:25;13.20;97.30
16229;DHT22;8222;51.462;12.630;2024-03-17T14:39:55;13.10;95.10
16229;DHT22;8222;51.462;12.630;2024-03-17T14:42:23;13.60;94.80
16229;DHT22;8222;51.462;12.630;2024-03-17T14:44:50;12.90;95.20
16229;DHT22;8222;51.462;12.630;2024-03-17T14:47:18;12.80;95.80
16229;DHT22;8222;51.462;12.630;2024-03-17T14:49:43;12.70;96.40
16229;DHT22;8222;51.462;12.630;2024-03-17T14:52:10;12.70;96.80
16229;DHT22;8222;51.462;12.630;2024-03-17T14:54:38;12.80;96.50
16229;DHT22;8222;51.462;12.630;2024-03-17T14:57:04;12.80;97.70
16229;DHT22;8222;51.462;12.630;2024-03-17T14:59:32;12.50;98.20
16229;DHT22;8222;51.462;12.630;2024-03-17T15:02:00;12.60;98.10
16229;DHT22;8222;51.462;12.630;2024-03-17T15:04:26;12.60;98.40
16229;DHT22;8222;51.462;12.630;2024-03-17T15:06:58;12.60;97.30
16229;DHT22;8222;51.462;12.630;2024-03-17T15:09:23;13.20;98.40
16229;DHT22;8222;51.462;12.630;2024-03-17T15:11:51;12.50;97.20
16229;DHT22;8222;51.462;12.630;2024-03-17T15:14:19;12.40;97.50
16229;DHT22;8222;51.462;12.630;2024-03-17T15:16:45;12.50;97.20
16229;DHT22;8222;51.462;12.630;2024-03-17T15:19:11;12.50;96.60
16229;DHT22;8222;51.462;12.630;2024-03-17T15:21:37;12.40;97.10
16229;DHT22;8222;51.462;12.630;2024-03-17T15:24:05;12.30;97.10
16229;DHT22;8222;51.462;12.630;2024-03-17T15:26:35;12.20;98.20
16229;DHT22;8222;51.462;12.630;2024-03-17T15:29:03;12.20;99.00
16229;DHT22;8222;51.462;12.630;2024-03-17T15:31:36;12.20;99.80
16229;DHT22;8222;51.462;12.630;2024-03-17T15:34:04;12.20;99.80
16229;DHT22;8222;51.462;12.630;2024-03-17T15:36:30;12.20;99.90
16229;DHT22;8222;51.462;12.630;2024-03-17T15:38:55;12.20;99.90
16229;DHT22;8222;51.462;12.630;2024-03-17T15:41:23;12.10;99.90
16229;DHT22;8222;51.462;12.630;2024-03-17T15:43:51;12.70;99.90
16229;DHT22;8222;51.462;12.630;2024-03-17T15:46:19;12.10;99.90
16229;DHT22;8222;51.462;12.630;2024-03-17T15:48:45;12.20;99.90
16229;DHT22;8222;51.462;12.630;2024-03-17T15:51:11;12.30;99.90
16229;DHT22;8222;51.462;12.630;2024-03-17T15:53:43;12.20;99.90
16229;DHT22;8222;51.462;12.630;2024-03-17T15:56:09;12.10;99.90
16229;DHT22;8222;51.462;12.630;2024-03-17T15:58:35;12.00;99.90
16229;DHT22;8222;51.462;12.630;2024-03-17T16:01:07;12.00;99.90
16229;DHT22;8222;51.462;12.630;2024-03-17T16:03:36;11.90;99.90
16229;DHT22;8222;51.462;12.630;2024-03-17T16:06:09;11.80;99.90
16229;DHT22;8222;51.462;12.630;2024-03-17T16:08:50;11.80;99.90
16229;DHT22;8222;51.462;12.630;2024-03-17T16:11:20;11.80;99.90
16229;DHT22;8222;51.462;12.630;2024-03-17T16:13:54;11.80;99.90
16229;DHT22;8222;51.462;12.630;2024-03-17T16:16:21;11.70;99.90
16229;DHT22;8222;51.462;12.630;2024-03-17T16:18:51;11.80;99.90
16229;DHT22;8222;51.462;12.630;2024-03-17T16:21:19;11.80;99.90
16229;DHT22;8222;51.462;12.630;2024-03-17T16:23:59;11.80;99.90
16229;DHT22;8222;51.462;12.630;2024-03-17T16:26:27;11.70;99.90
16229;DHT22;8222;51.462;12.630;2024-03-17T16:28:53;11.70;99.90